Time;durP1;ratioP1;P1;durP2;ratioP2;P2;SDS_P1;SDS_P2;PMS_P1;PMS_P2;Temp;Humidity;BMP_temperature;BMP_pressure;BME280_temperature;BME280_humidity;BME280_pressure;Samples;Min_cycle;Max_cycle;Signal;HPM_P1;HPM_P2
2021/04/27 00:01:55;;;;;;;7.65;3.40;;;5.70;96.10;;;;;;5095411;28;20110;-80
2021/04/27 00:04:21;;;;;;;9.35;3.80;;;5.70;96.10;;;;;;5113071;28;20036;-80
2021/04/27 00:06:47;;;;;;;10.90;3.92;;;5.80;96.10;;;;;;5111344;28;20460;-81
2021/04/27 00:09:13;;;;;;;12.02;4.00;;;6.00;96.10;;;;;;5112230;28;20062;-81
2021/04/27 00:11:40;;;;;;;12.10;4.32;;;5.70;96.00;;;;;;5104354;28;20035;-80
2021/04/27 00:14:07;;;;;;;8.90;3.67;;;5.70;96.10;;;;;;5112503;28;20088;-79
2021/04/27 00:16:33;;;;;;;10.60;4.00;;;6.10;96.20;;;;;;5094736;28;20037;-79
2021/04/27 00:19:00;;;;;;;10.73;4.18;;;5.60;96.10;;;;;;5112985;28;20038;-79
2021/04/27 00:21:28;;;;;;;8.57;3.97;;;5.60;96.10;;;;;;5095351;28;20028;-80
2021/04/27 00:23:56;;;;;;;12.98;3.90;;;5.60;96.10;;;;;;5093178;28;20044;-80
2021/04/27 00:26:22;;;;;;;11.35;3.88;;;5.60;96.20;;;;;;5113149;28;20594;-80
2021/04/27 00:28:48;;;;;;;11.65;4.15;;;5.60;96.20;;;;;;5112725;28;20063;-81
2021/04/27 00:31:14;;;;;;;8.48;4.10;;;5.50;96.30;;;;;;5112963;28;20035;-80
2021/04/27 00:33:43;;;;;;;7.28;3.95;;;5.50;96.30;;;;;;5094413;28;20146;-80
2021/04/27 00:36:09;;;;;;;12.13;4.28;;;5.50;96.30;;;;;;5097248;28;20439;-80
2021/04/27 00:38:34;;;;;;;10.35;3.80;;;5.50;96.30;;;;;;5112909;28;20032;-80
2021/04/27 00:41:01;;;;;;;11.30;3.95;;;5.50;96.40;;;;;;5095644;28;20027;-80
2021/04/27 00:43:27;;;;;;;9.23;3.80;;;5.80;96.40;;;;;;5112676;28;20039;-81
2021/04/27 00:45:56;;;;;;;9.05;3.67;;;5.80;96.50;;;;;;5094527;28;20131;-81
2021/04/27 00:48:22;;;;;;;8.30;3.97;;;5.50;96.40;;;;;;5112695;28;20188;-81
2021/04/27 00:50:48;;;;;;;11.98;4.40;;;5.70;96.50;;;;;;5112388;28;20418;-81
2021/04/27 00:53:14;;;;;;;9.95;3.90;;;5.50;96.50;;;;;;5081550;28;20036;-81
2021/04/27 00:55:43;;;;;;;15.52;3.97;;;6.30;96.70;;;;;;5111321;28;20511;-81
2021/04/27 00:58:09;;;;;;;11.57;4.10;;;5.50;96.50;;;;;;5112436;28;20035;-81
2021/04/27 01:00:38;;;;;;;8.60;4.47;;;5.90;96.60;;;;;;5112727;28;20059;-81
2021/04/27 01:03:14;;;;;;;9.35;4.13;;;5.50;96.50;;;;;;5112297;28;20047;-80
2021/04/27 01:05:40;;;;;;;;;;;5.40;96.50;;;;;;5078193;28;20061;-81
2021/04/27 01:08:25;;;;;;;11.10;4.50;;;5.40;96.90;;;;;;5111422;28;20432;-81
2021/04/27 01:11:29;;;;;;;6.47;4.00;;;5.40;96.70;;;;;;5077632;28;20410;-80
2021/04/27 01:14:06;;;;;;;10.18;3.83;;;5.40;96.70;;;;;;5095700;28;20036;-80
2021/04/27 01:16:36;;;;;;;8.38;3.85;;;5.40;96.60;;;;;;5112710;28;20036;-78
2021/04/27 01:19:07;;;;;;;12.43;4.70;;;5.40;96.60;;;;;;5112381;28;20499;-78
2021/04/27 01:21:37;;;;;;;9.85;3.95;;;5.40;96.70;;;;;;5093815;28;20058;-78
2021/04/27 01:24:17;;;;;;;8.90;4.10;;;5.40;96.70;;;;;;5111645;28;20047;-78
2021/04/27 01:26:52;;;;;;;9.05;4.70;;;5.50;96.80;;;;;;5093820;28;20055;-78
2021/04/27 01:29:23;;;;;;;10.45;4.63;;;5.40;96.70;;;;;;5110620;28;20491;-77
2021/04/27 01:31:52;;;;;;;10.27;4.53;;;5.40;96.70;;;;;;5095466;28;20469;-77
2021/04/27 01:34:24;;;;;;;11.57;4.97;;;5.40;96.70;;;;;;5115924;28;20065;-78
2021/04/27 01:36:52;;;;;;;12.25;5.20;;;5.40;96.70;;;;;;5097671;28;20123;-77
2021/04/27 01:39:20;;;;;;;9.63;4.80;;;5.40;96.70;;;;;;5097546;28;20066;-77
2021/04/27 01:41:47;;;;;;;12.48;4.82;;;6.00;97.00;;;;;;5097722;28;20042;-77
2021/04/27 01:44:16;;;;;;;16.70;4.65;;;5.80;97.00;;;;;;5114126;28;20035;-77
2021/04/27 01:46:43;;;;;;;11.73;4.45;;;5.40;97.00;;;;;;5115618;28;20035;-77
2021/04/27 01:49:10;;;;;;;9.73;4.75;;;5.30;97.00;;;;;;5114875;28;20070;-75
2021/04/27 01:51:36;;;;;;;9.75;5.60;;;5.30;97.00;;;;;;5115814;28;20036;-75
2021/04/27 01:54:03;;;;;;;10.15;4.97;;;5.60;97.20;;;;;;5094831;28;20067;-75
2021/04/27 01:56:29;;;;;;;10.27;4.68;;;5.20;97.30;;;;;;5109644;28;20035;-75
2021/04/27 01:58:55;;;;;;;9.52;4.47;;;6.20;97.60;;;;;;5096372;28;20043;-76
2021/04/27 02:01:21;;;;;;;13.30;4.68;;;5.70;97.50;;;;;;5115240;28;20038;-76
2021/04/27 02:03:48;;;;;;;11.45;4.90;;;5.70;97.50;;;;;;5115342;28;20151;-77
2021/04/27 02:06:15;;;;;;;10.07;4.68;;;5.20;97.40;;;;;;5097375;28;20028;-77
2021/04/27 02:08:51;;;;;;;10.35;4.80;;;5.20;97.50;;;;;;5115499;28;20031;-77
2021/04/27 02:11:19;;;;;;;11.25;4.68;;;5.60;97.60;;;;;;5097277;28;20039;-77
2021/04/27 02:13:44;;;;;;;10.13;4.88;;;5.20;97.50;;;;;;5095883;28;20054;-77
2021/04/27 02:16:12;;;;;;;10.63;4.50;;;5.20;97.50;;;;;;5096484;28;20035;-77
2021/04/27 02:18:55;;;;;;;13.15;4.60;;;5.20;97.60;;;;;;5105816;28;20035;-77
2021/04/27 02:21:25;;;;;;;9.13;5.10;;;5.20;97.60;;;;;;5113172;28;20058;-77
2021/04/27 02:23:53;;;;;;;10.55;4.70;;;5.20;97.60;;;;;;5114846;28;20041;-77
2021/04/27 02:26:19;;;;;;;11.32;4.63;;;5.70;97.80;;;;;;5096819;28;20047;-77
2021/04/27 02:28:46;;;;;;;12.05;5.10;;;5.10;97.70;;;;;;5091768;28;20036;-77
2021/04/27 02:31:12;;;;;;;10.35;4.65;;;5.10;97.90;;;;;;5109444;28;20040;-77
2021/04/27 02:33:42;;;;;;;11.15;4.35;;;5.10;98.00;;;;;;5111941;28;20469;-77
2021/04/27 02:36:09;;;;;;;13.75;5.13;;;5.50;98.10;;;;;;5086322;28;20395;-77
2021/04/27 02:38:36;;;;;;;9.18;4.80;;;5.00;98.00;;;;;;5114810;28;20103;-76
2021/04/27 02:41:02;;;;;;;9.65;4.47;;;5.00;98.00;;;;;;5114445;28;20027;-76
2021/04/27 02:43:28;;;;;;;9.02;4.85;;;5.00;98.10;;;;;;5096070;28;20395;-76
2021/04/27 02:45:54;;;;;;;9.65;5.13;;;5.40;98.10;;;;;;5113230;28;20034;-76
2021/04/27 02:48:23;;;;;;;13.55;5.20;;;5.00;98.10;;;;;;5114337;28;20498;-76
2021/04/27 02:51:01;;;;;;;9.70;4.68;;;5.00;98.30;;;;;;5096228;28;20089;-76
2021/04/27 02:53:27;;;;;;;9.57;4.88;;;4.90;98.40;;;;;;5097879;28;20032;-76
2021/04/27 02:55:53;;;;;;;17.20;5.20;;;4.90;98.40;;;;;;5114188;28;20047;-76
2021/04/27 02:58:19;;;;;;;11.10;5.10;;;4.90;98.50;;;;;;5097250;28;20035;-76
2021/04/27 03:00:46;;;;;;;8.52;5.20;;;4.90;98.40;;;;;;5096110;28;20737;-76
2021/04/27 03:03:12;;;;;;;8.95;5.40;;;4.90;98.40;;;;;;5108671;28;20503;-76
2021/04/27 03:05:38;;;;;;;10.70;5.13;;;4.90;98.40;;;;;;5070065;28;20044;-76
2021/04/27 03:08:06;;;;;;;9.25;5.22;;;4.90;98.40;;;;;;5114224;28;20042;-76
2021/04/27 03:10:37;;;;;;;11.80;5.53;;;4.90;98.40;;;;;;5096465;28;20043;-76
2021/04/27 03:13:04;;;;;;;8.15;5.40;;;4.90;98.30;;;;;;5114139;28;20066;-76
2021/04/27 03:15:30;;;;;;;11.35;5.85;;;4.90;98.30;;;;;;5097201;28;20035;-76
2021/04/27 03:17:56;;;;;;;12.77;5.53;;;4.80;98.30;;;;;;5094900;28;20069;-75
2021/04/27 03:20:22;;;;;;;9.32;5.53;;;4.70;98.20;;;;;;5114034;28;20037;-76
2021/04/27 03:22:49;;;;;;;8.85;5.10;;;4.80;98.20;;;;;;5094584;28;20031;-76
2021/04/27 03:25:15;;;;;;;10.77;5.07;;;4.70;98.10;;;;;;5095469;28;20133;-77
2021/04/27 03:27:47;;;;;;;12.10;5.68;;;4.70;98.10;;;;;;5113847;28;20483;-77
2021/04/27 03:30:14;;;;;;;14.52;5.45;;;4.70;98.00;;;;;;5078047;28;20119;-77
2021/04/27 03:32:40;;;;;;;14.32;5.80;;;4.70;98.00;;;;;;5098289;28;20031;-75
2021/04/27 03:35:10;;;;;;;11.05;5.63;;;4.60;97.90;;;;;;5113440;28;20040;-76
2021/04/27 03:37:37;;;;;;;10.00;5.70;;;4.60;97.80;;;;;;5094161;28;20043;-76
2021/04/27 03:40:04;;;;;;;11.48;5.45;;;4.60;97.70;;;;;;5095591;28;20035;-76
2021/04/27 03:42:30;;;;;;;10.68;5.68;;;4.60;97.70;;;;;;5095475;28;20039;-76
2021/04/27 03:44:56;;;;;;;11.70;5.82;;;4.50;97.60;;;;;;5095423;28;20539;-76
2021/04/27 03:47:22;;;;;;;14.48;5.85;;;4.50;97.60;;;;;;5113323;28;20027;-76
2021/04/27 03:49:48;;;;;;;10.35;5.53;;;4.50;97.60;;;;;;5102017;28;20145;-76
2021/04/27 03:52:14;;;;;;;8.30;5.22;;;4.40;97.60;;;;;;5111751;28;20039;-76
2021/04/27 03:54:43;;;;;;;9.38;5.68;;;4.40;97.40;;;;;;5113112;28;20039;-76
2021/04/27 03:57:09;;;;;;;10.35;5.60;;;4.40;97.40;;;;;;5094337;28;20046;-76
2021/04/27 03:59:35;;;;;;;10.65;5.75;;;4.40;97.40;;;;;;5113288;28;20027;-76
2021/04/27 04:02:01;;;;;;;9.05;5.68;;;4.30;97.30;;;;;;5113312;28;20032;-76
2021/04/27 04:04:26;;;;;;;8.05;5.75;;;4.40;97.40;;;;;;5094947;28;20483;-77
2021/04/27 04:06:52;;;;;;;9.95;5.70;;;4.30;97.40;;;;;;5113275;28;20039;-77
2021/04/27 04:09:20;;;;;;;10.10;6.10;;;4.30;97.40;;;;;;5111400;28;20039;-77
2021/04/27 04:11:46;;;;;;;7.50;5.38;;;4.30;97.30;;;;;;5113088;28;20039;-77
2021/04/27 04:14:13;;;;;;;9.35;5.78;;;4.30;97.30;;;;;;5113046;28;20105;-77
2021/04/27 04:16:39;;;;;;;10.70;6.10;;;4.70;97.40;;;;;;5112894;28;20030;-77
2021/04/27 04:19:05;;;;;;;11.55;5.93;;;4.40;97.30;;;;;;5074605;28;20450;-77
2021/04/27 04:21:30;;;;;;;10.60;5.43;;;4.30;97.20;;;;;;5105751;28;20032;-77
2021/04/27 04:23:57;;;;;;;8.93;6.00;;;4.20;97.20;;;;;;5113075;28;20446;-77
2021/04/27 04:26:23;;;;;;;9.73;6.25;;;4.20;97.20;;;;;;5093606;28;20116;-77
2021/04/27 04:28:49;;;;;;;15.77;6.20;;;4.20;97.10;;;;;;5094427;28;20479;-77
2021/04/27 04:31:17;;;;;;;8.75;5.40;;;4.20;97.10;;;;;;5112713;28;20479;-77
2021/04/27 04:33:45;;;;;;;8.07;5.43;;;4.10;97.10;;;;;;5078044;28;20067;-77
2021/04/27 04:36:11;;;;;;;9.57;5.68;;;4.20;97.10;;;;;;5112714;28;20062;-77
2021/04/27 04:38:37;;;;;;;9.38;5.03;;;4.60;97.20;;;;;;5112321;28;20047;-77
2021/04/27 04:41:08;;;;;;;10.90;5.47;;;4.90;97.30;;;;;;5093739;28;20044;-77
2021/04/27 04:43:33;;;;;;;10.55;6.28;;;4.70;97.20;;;;;;5106698;28;20031;-77
2021/04/27 04:46:00;;;;;;;10.90;5.90;;;4.10;97.10;;;;;;5112667;28;20120;-76
2021/04/27 04:48:25;;;;;;;13.95;5.18;;;4.00;97.00;;;;;;5112461;28;20089;-76
2021/04/27 04:50:51;;;;;;;9.32;4.90;;;4.10;97.10;;;;;;5094491;28;20110;-75
2021/04/27 04:53:17;;;;;;;9.05;5.13;;;4.00;96.90;;;;;;5094436;28;20027;-76
2021/04/27 04:55:43;;;;;;;7.90;5.10;;;4.20;96.90;;;;;;5112240;28;20036;-76
2021/04/27 04:58:09;;;;;;;8.27;5.47;;;4.10;96.80;;;;;;5094550;28;20036;-76
2021/04/27 05:00:35;;;;;;;10.77;4.78;;;4.20;96.60;;;;;;5110525;28;20047;-76
2021/04/27 05:03:01;;;;;;;10.02;5.13;;;4.20;96.40;;;;;;5094444;28;20040;-76
2021/04/27 05:05:27;;;;;;;7.95;4.78;;;4.30;96.10;;;;;;5094333;28;20035;-77
2021/04/27 05:10:33;;;;;;;9.40;4.43;;;4.20;96.00;;;;;;5116329;28;20484;-77
2021/04/27 05:12:59;;;;;;;8.27;4.30;;;4.30;96.00;;;;;;5099443;28;20137;-77
2021/04/27 05:15:25;;;;;;;7.85;4.35;;;4.30;95.80;;;;;;5091188;28;20483;-77
2021/04/27 05:17:51;;;;;;;6.78;4.30;;;4.40;95.80;;;;;;5078998;28;20044;-77
2021/04/27 05:20:18;;;;;;;10.50;4.85;;;4.60;95.80;;;;;;5098001;28;20422;-77
2021/04/27 05:22:45;;;;;;;10.10;4.28;;;4.40;95.70;;;;;;5098450;28;20137;-77
2021/04/27 05:25:13;;;;;;;8.07;4.40;;;4.50;95.60;;;;;;5097995;28;20449;-77
2021/04/27 05:27:39;;;;;;;9.48;4.47;;;4.50;95.60;;;;;;5116331;28;20038;-79
2021/04/27 05:30:06;;;;;;;12.25;4.68;;;4.60;95.50;;;;;;5096210;28;20043;-79
2021/04/27 05:32:33;;;;;;;9.18;4.50;;;4.60;95.10;;;;;;5092970;28;20074;-79
2021/04/27 05:34:58;;;;;;;9.23;4.55;;;4.60;95.20;;;;;;5096862;28;20056;-79
2021/04/27 05:37:24;;;;;;;7.90;4.00;;;4.70;95.00;;;;;;5083578;28;20036;-79
2021/04/27 05:39:50;;;;;;;7.95;4.25;;;4.70;95.00;;;;;;5115747;28;20032;-79
2021/04/27 05:42:37;;;;;;;10.40;4.55;;;4.80;95.00;;;;;;5084546;28;20039;-79
2021/04/27 05:45:04;;;;;;;7.32;4.35;;;4.00;94.60;;;;;;5077413;28;20090;-79
2021/04/27 05:47:30;;;;;;;11.00;4.25;;;4.90;94.70;;;;;;5114653;28;20036;-79
2021/04/27 05:49:56;;;;;;;7.60;4.13;;;4.90;94.70;;;;;;5113957;28;20062;-80
2021/04/27 05:52:22;;;;;;;6.78;3.60;;;4.90;94.70;;;;;;5115199;28;20136;-80
2021/04/27 05:54:49;;;;;;;11.23;4.10;;;5.00;94.60;;;;;;5115870;28;20043;-80
2021/04/27 05:57:15;;;;;;;9.35;3.95;;;5.10;94.40;;;;;;5115688;28;20216;-80
2021/04/27 05:59:41;;;;;;;7.97;3.95;;;5.10;94.20;;;;;;5097639;28;20054;-80
2021/04/27 06:02:07;;;;;;;9.55;3.67;;;5.20;93.80;;;;;;5097528;28;20043;-80
2021/04/27 06:04:33;;;;;;;6.45;4.13;;;5.80;93.90;;;;;;5115471;28;20039;-80
2021/04/27 06:06:59;;;;;;;6.80;3.40;;;5.60;93.80;;;;;;5077376;28;20065;-80
2021/04/27 06:09:25;;;;;;;10.32;3.75;;;5.30;93.50;;;;;;5112341;28;20042;-80
2021/04/27 06:11:53;;;;;;;7.13;3.70;;;5.40;93.50;;;;;;5115159;28;20106;-80
2021/04/27 06:14:19;;;;;;;6.38;3.70;;;5.50;93.60;;;;;;5115051;28;20040;-80
2021/04/27 06:16:45;;;;;;;7.95;3.42;;;5.50;93.20;;;;;;5084021;28;20051;-80
2021/04/27 06:19:14;;;;;;;5.53;3.30;;;5.60;93.30;;;;;;5114099;28;20036;-79
2021/04/27 06:21:41;;;;;;;5.20;2.85;;;5.70;93.10;;;;;;5108452;27;20035;-78
2021/04/27 06:24:08;;;;;;;5.63;3.38;;;5.70;93.00;;;;;;5101215;28;20039;-78
2021/04/27 06:26:36;;;;;;;8.90;3.47;;;5.70;92.80;;;;;;5081160;28;20447;-79
2021/04/27 06:29:04;;;;;;;8.52;3.53;;;5.80;92.80;;;;;;5086066;28;20040;-79
2021/04/27 06:31:31;;;;;;;10.07;3.50;;;5.80;92.90;;;;;;5102655;28;20059;-80
2021/04/27 06:33:57;;;;;;;12.80;3.20;;;5.90;92.60;;;;;;5113042;28;20059;-82
2021/04/27 06:36:23;;;;;;;7.07;3.25;;;6.90;93.10;;;;;;5108127;28;20059;-81
2021/04/27 06:38:49;;;;;;;10.13;2.97;;;5.60;92.80;;;;;;5106465;28;20089;-85
2021/04/27 06:41:17;;;;;;;4.20;2.90;;;7.30;93.20;;;;;;5085887;28;20433;-80
2021/04/27 06:43:50;;;;;;;6.00;2.70;;;6.10;92.30;;;;;;5083641;28;20502;-81
2021/04/27 06:46:21;;;;;;;7.65;2.90;;;6.30;92.00;;;;;;5095677;28;20035;-81
2021/04/27 06:48:52;;;;;;;9.77;3.28;;;6.90;92.40;;;;;;5106154;28;20364;-81
2021/04/27 06:51:21;;;;;;;7.43;2.83;;;5.90;91.90;;;;;;5104919;28;20036;-81
2021/04/27 06:53:53;;;;;;;4.65;2.83;;;6.60;91.80;;;;;;5097399;28;20055;-80
2021/04/27 06:56:19;;;;;;;7.25;2.67;;;6.60;91.80;;;;;;5114451;27;20040;-81
2021/04/27 06:58:45;;;;;;;5.45;2.47;;;6.70;91.70;;;;;;5102300;28;20038;-81
2021/04/27 07:01:14;;;;;;;4.32;2.60;;;6.80;91.30;;;;;;5098514;28;20039;-81
2021/04/27 07:03:43;;;;;;;6.85;2.97;;;6.90;91.40;;;;;;5092029;28;20135;-79
2021/04/27 07:06:08;;;;;;;4.68;2.50;;;6.90;90.90;;;;;;5096679;28;20055;-79
2021/04/27 07:08:34;;;;;;;7.13;2.30;;;7.10;91.00;;;;;;5082353;28;20043;-80
2021/04/27 07:11:04;;;;;;;3.50;2.28;;;7.10;90.80;;;;;;5106561;28;20175;-80
2021/04/27 07:13:34;;;;;;;7.10;2.17;;;8.00;90.50;;;;;;5077283;28;20044;-79
2021/04/27 07:16:00;;;;;;;6.78;2.40;;;8.10;90.10;;;;;;5110402;28;20449;-76
2021/04/27 07:18:29;;;;;;;7.88;2.35;;;7.40;88.90;;;;;;5095183;28;20466;-75
2021/04/27 07:20:55;;;;;;;9.85;2.45;;;7.50;88.60;;;;;;5090479;28;20066;-76
2021/04/27 07:23:24;;;;;;;8.13;2.55;;;7.50;88.10;;;;;;5098445;28;20464;-74
2021/04/27 07:25:50;;;;;;;6.20;2.35;;;8.00;87.50;;;;;;5098455;28;20036;-74
2021/04/27 07:28:21;;;;;;;6.82;2.42;;;7.70;87.00;;;;;;5116138;27;20038;-74
2021/04/27 07:30:52;;;;;;;6.95;2.58;;;8.40;87.60;;;;;;5113034;27;20089;-73
2021/04/27 07:33:19;;;;;;;4.47;2.30;;;7.90;86.90;;;;;;5111428;27;20051;-76
2021/04/27 07:35:45;;;;;;;6.40;2.13;;;7.90;87.20;;;;;;5102293;27;20039;-77
2021/04/27 07:38:14;;;;;;;6.00;2.15;;;7.90;86.90;;;;;;5109476;27;20399;-77
2021/04/27 07:40:39;;;;;;;8.27;2.50;;;8.00;86.50;;;;;;5104881;28;20483;-77
2021/04/27 07:43:08;;;;;;;6.05;2.22;;;8.10;86.20;;;;;;5104355;28;20032;-77
2021/04/27 07:45:46;;;;;;;4.97;2.28;;;8.10;86.00;;;;;;5105563;28;20126;-76
2021/04/27 07:48:37;;;;;;;7.93;2.30;;;8.70;84.80;;;;;;5126905;27;20077;-76
2021/04/27 07:51:04;;;;;;;4.00;2.45;;;8.20;84.70;;;;;;5079225;28;20055;-78
2021/04/27 07:53:29;;;;;;;7.70;2.28;;;8.30;85.00;;;;;;5105469;28;20051;-76
2021/04/27 07:55:55;;;;;;;10.10;2.72;;;8.40;84.50;;;;;;5108475;28;20035;-84
2021/04/27 07:58:21;;;;;;;4.95;2.50;;;8.50;84.50;;;;;;5111502;28;20080;-82
2021/04/27 08:00:47;;;;;;;6.85;2.78;;;8.80;84.30;;;;;;5090771;28;20093;-82
2021/04/27 08:03:13;;;;;;;13.07;3.15;;;8.60;83.70;;;;;;5071530;28;20042;-82
2021/04/27 08:05:39;;;;;;;8.75;2.70;;;8.70;83.60;;;;;;5086718;28;20039;-84
2021/04/27 08:08:10;;;;;;;10.13;2.65;;;8.70;83.20;;;;;;5084175;28;20046;-79
2021/04/27 08:10:36;;;;;;;4.70;2.22;;;8.80;82.90;;;;;;5108478;28;20051;-81
2021/04/27 08:13:02;;;;;;;7.82;2.50;;;8.90;81.10;;;;;;5099822;27;20079;-80
2021/04/27 08:15:30;;;;;;;6.53;2.42;;;9.30;81.10;;;;;;5108308;27;20134;-85
2021/04/27 08:18:01;;;;;;;6.30;2.60;;;9.60;81.00;;;;;;5098351;27;20050;-85
2021/04/27 08:20:33;;;;;;;6.15;2.50;;;9.00;80.40;;;;;;5095483;28;20493;-84
2021/04/27 08:23:03;;;;;;;5.25;2.70;;;9.20;79.10;;;;;;5114841;27;20036;-84
2021/04/27 08:25:30;;;;;;;7.82;2.58;;;9.20;79.80;;;;;;5113787;28;20502;-84
2021/04/27 08:27:59;;;;;;;11.05;2.45;;;9.20;79.80;;;;;;5113534;28;20063;-84
2021/04/27 08:30:29;;;;;;;7.15;2.70;;;9.80;79.70;;;;;;5073476;28;20065;-84
2021/04/27 08:32:57;;;;;;;4.25;2.53;;;9.40;78.40;;;;;;5085678;28;20048;-85
2021/04/27 08:35:23;;;;;;;10.15;2.63;;;10.30;78.70;;;;;;5080577;27;20112;-84
2021/04/27 08:37:52;;;;;;;7.70;2.67;;;9.50;77.50;;;;;;5106256;28;20047;-86
2021/04/27 08:40:18;;;;;;;5.53;2.70;;;9.80;77.30;;;;;;5076651;28;20054;-84
2021/04/27 08:42:49;;;;;;;6.38;2.83;;;9.60;76.90;;;;;;5083244;28;20031;-85
2021/04/27 08:45:47;;;;;;;8.20;3.00;;;9.60;76.50;;;;;;5113075;28;20090;-85
2021/04/27 08:48:16;;;;;;;6.72;2.80;;;9.40;75.50;;;;;;5078226;28;20055;-85
2021/04/27 08:50:44;;;;;;;8.90;2.33;;;9.70;76.70;;;;;;5095916;28;20071;-85
2021/04/27 08:53:13;;;;;;;10.57;2.95;;;10.80;76.30;;;;;;5095085;28;20432;-84
2021/04/27 08:55:40;;;;;;;7.07;3.03;;;9.90;75.10;;;;;;5095807;28;20084;-85
2021/04/27 08:58:07;;;;;;;8.00;2.60;;;10.10;74.90;;;;;;5090573;28;20043;-85
2021/04/27 09:00:34;;;;;;;4.20;3.05;;;10.00;74.50;;;;;;5094843;28;20460;-85
2021/04/27 09:03:08;;;;;;;17.73;2.60;;;10.50;74.40;;;;;;5080833;28;20123;-86
2021/04/27 09:05:53;;;;;;;14.43;3.03;;;10.60;73.60;;;;;;5095188;28;20044;-81
2021/04/27 09:08:43;;;;;;;11.07;3.08;;;10.20;72.60;;;;;;5105654;28;20075;-80
2021/04/27 09:11:38;;;;;;;7.30;2.55;;;10.30;69.60;;;;;;5096490;28;20070;-80
2021/04/27 09:14:26;;;;;;;9.65;2.42;;;10.60;70.40;;;;;;5112433;28;20131;-82
2021/04/27 09:17:06;;;;;;;10.82;2.40;;;10.40;71.70;;;;;;5096383;28;20032;-82
2021/04/27 09:19:40;;;;;;;4.50;2.53;;;10.50;69.60;;;;;;5108235;28;20467;-82
2021/04/27 09:22:25;;;;;;;8.85;2.95;;;10.90;69.20;;;;;;5082228;28;20035;-82
2021/04/27 09:25:07;;;;;;;5.22;2.13;;;10.60;68.80;;;;;;5073584;28;20032;-82
2021/04/27 09:27:48;;;;;;;9.00;2.65;;;10.70;68.10;;;;;;5094910;28;20031;-81
2021/04/27 09:30:28;;;;;;;6.70;2.53;;;10.80;68.00;;;;;;5094202;28;20040;-81
2021/04/27 09:33:05;;;;;;;5.68;2.47;;;10.80;67.30;;;;;;5094209;28;20047;-81
2021/04/27 09:35:50;;;;;;;3.70;2.50;;;10.80;66.30;;;;;;5107702;28;20032;-80
2021/04/27 09:39:12;;;;;;;5.78;2.47;;;10.80;66.50;;;;;;5075431;28;20048;-80
2021/04/27 09:42:06;;;;;;;4.65;2.60;;;10.90;65.60;;;;;;5034251;28;20048;-80
2021/04/27 09:44:39;;;;;;;7.50;2.40;;;10.90;64.80;;;;;;5088840;28;20463;-80
2021/04/27 09:47:30;;;;;;;8.77;2.40;;;11.00;65.40;;;;;;5098586;28;20150;-80
2021/04/27 09:50:14;;;;;;;11.93;2.60;;;11.00;65.00;;;;;;5097535;28;20380;-80
2021/04/27 09:52:45;;;;;;;5.38;2.83;;;11.10;63.20;;;;;;5112520;28;20051;-80
2021/04/27 09:55:15;;;;;;;6.68;2.40;;;11.10;63.90;;;;;;5115889;28;20085;-80
2021/04/27 09:57:52;;;;;;;4.47;2.30;;;11.20;64.00;;;;;;5093671;28;20384;-85
2021/04/27 10:00:39;;;;;;;4.25;2.47;;;11.30;63.80;;;;;;5109372;28;20035;-85
2021/04/27 10:03:06;;;;;;;;;;;11.20;62.70;;;;;;5086048;28;20473;-85
2021/04/27 10:05:34;;;;;;;3.85;2.20;;;11.20;62.20;;;;;;5097920;28;20363;-84
2021/04/27 10:08:06;;;;;;;3.97;2.53;;;11.30;64.10;;;;;;5116052;28;20434;-84
2021/04/27 10:10:39;;;;;;;6.20;2.20;;;11.30;64.30;;;;;;5116683;28;20067;-86
2021/04/27 10:13:10;;;;;;;4.60;2.40;;;11.30;61.60;;;;;;5080957;28;20127;-85
2021/04/27 10:15:45;;;;;;;6.55;2.33;;;11.30;62.30;;;;;;5094666;28;20032;-85
2021/04/27 10:18:13;;;;;;;4.65;2.40;;;11.40;62.10;;;;;;5117572;28;20066;-86
2021/04/27 10:20:39;;;;;;;4.22;2.33;;;11.40;61.70;;;;;;5060896;28;20063;-86
2021/04/27 10:23:10;;;;;;;7.00;2.60;;;11.50;61.70;;;;;;5098130;28;20047;-85
2021/04/27 10:25:38;;;;;;;8.05;2.40;;;11.50;62.10;;;;;;5067994;28;20044;-85
2021/04/27 10:28:12;;;;;;;6.18;2.30;;;11.50;61.70;;;;;;5098129;28;20035;-82
2021/04/27 10:30:46;;;;;;;8.20;2.33;;;11.50;60.00;;;;;;5101408;28;20031;-82
2021/04/27 10:33:31;;;;;;;6.95;2.40;;;11.50;60.30;;;;;;5115180;28;20035;-83
2021/04/27 10:36:13;;;;;;;10.10;2.30;;;11.60;59.80;;;;;;5096917;28;20486;-83
2021/04/27 10:38:44;;;;;;;6.75;2.50;;;11.40;59.70;;;;;;5080524;28;20130;-84
2021/04/27 10:41:18;;;;;;;6.88;2.40;;;11.70;59.70;;;;;;5097101;28;20115;-82
2021/04/27 10:44:00;;;;;;;5.43;2.47;;;11.70;59.30;;;;;;5071863;28;20057;-82
2021/04/27 10:46:35;;;;;;;6.35;2.15;;;11.80;59.10;;;;;;5080340;28;20115;-83
2021/04/27 10:49:28;;;;;;;7.07;2.38;;;11.80;57.70;;;;;;5070227;28;20528;-83
2021/04/27 10:51:55;;;;;;;7.00;2.55;;;11.80;58.30;;;;;;5062219;28;20051;-83
2021/04/27 10:54:33;;;;;;;5.78;2.10;;;11.90;58.30;;;;;;5019867;28;20049;-83
2021/04/27 10:57:05;;;;;;;10.23;2.45;;;11.90;58.50;;;;;;5050265;28;20044;-83
2021/04/27 11:00:16;;;;;;;4.85;2.40;;;12.00;58.00;;;;;;5054742;28;20044;-83
2021/04/27 11:03:15;;;;;;;4.70;1.95;;;12.00;55.40;;;;;;5039321;28;20067;-87
2021/04/27 11:05:57;;;;;;;6.07;2.22;;;12.00;56.70;;;;;;5038149;28;20083;-85
2021/04/27 11:08:23;;;;;;;9.65;2.60;;;12.30;58.10;;;;;;5055441;28;20045;-84
2021/04/27 11:10:51;;;;;;;5.43;2.47;;;12.10;57.60;;;;;;5042398;28;20545;-84
2021/04/27 11:13:17;;;;;;;3.42;2.35;;;12.10;57.50;;;;;;5033290;28;20063;-74
2021/04/27 11:15:45;;;;;;;5.15;2.40;;;12.20;57.80;;;;;;5073916;28;20497;-73
2021/04/27 11:18:12;;;;;;;6.63;2.30;;;12.20;56.30;;;;;;5092299;28;20032;-75
2021/04/27 11:20:56;;;;;;;4.57;2.40;;;12.20;56.40;;;;;;5092614;28;20052;-75
2021/04/27 11:23:38;;;;;;;6.18;2.50;;;12.10;55.10;;;;;;5092931;28;20040;-74
2021/04/27 11:26:32;;;;;;;8.68;2.42;;;12.30;53.70;;;;;;5093696;28;20484;-74
2021/04/27 11:29:13;;;;;;;4.60;2.42;;;12.10;51.40;;;;;;5091069;28;20476;-74
2021/04/27 11:31:57;;;;;;;7.60;2.70;;;12.20;55.10;;;;;;5087733;28;20544;-75
2021/04/27 11:34:24;;;;;;;5.65;2.40;;;12.20;54.90;;;;;;5079706;28;20036;-75
2021/04/27 11:36:50;;;;;;;6.63;2.35;;;12.30;55.30;;;;;;5086553;28;20032;-80
2021/04/27 11:39:28;;;;;;;4.45;2.50;;;12.40;55.50;;;;;;5078311;28;20081;-78
2021/04/27 11:42:01;;;;;;;5.90;2.50;;;12.70;55.10;;;;;;5078388;28;20052;-78
2021/04/27 11:44:33;;;;;;;7.63;2.40;;;12.40;54.50;;;;;;5099543;28;20115;-78
2021/04/27 11:47:08;;;;;;;7.45;2.20;;;12.50;54.80;;;;;;5091660;28;20052;-78
2021/04/27 11:49:59;;;;;;;3.78;2.30;;;13.30;54.90;;;;;;5107327;28;20044;-78
2021/04/27 11:52:44;;;;;;;5.63;2.63;;;12.70;54.00;;;;;;5113563;28;20046;-78
2021/04/27 11:55:42;;;;;;;5.80;2.70;;;12.70;53.60;;;;;;5095223;28;20040;-79
2021/04/27 11:58:20;;;;;;;8.23;3.35;;;12.70;52.90;;;;;;5097108;28;20036;-79
2021/04/27 12:00:57;;;;;;;7.50;2.30;;;12.60;52.80;;;;;;5091248;28;20032;-78
2021/04/27 12:03:32;;;;;;;4.78;2.47;;;12.60;49.80;;;;;;5113579;28;20104;-78
2021/04/27 12:06:06;;;;;;;8.10;2.90;;;12.50;50.10;;;;;;5095398;28;20555;-78
2021/04/27 12:08:36;;;;;;;;;;;12.40;51.00;;;;;;5096086;28;20036;-78
2021/04/27 12:11:25;;;;;;;7.95;2.83;;;12.50;51.00;;;;;;5113072;28;19951;-78
2021/04/27 12:14:07;;;;;;;11.25;2.70;;;12.50;51.00;;;;;;5113187;28;20038;-79
2021/04/27 12:16:36;;;;;;;7.53;2.88;;;12.60;52.30;;;;;;5080199;28;20040;-79
2021/04/27 12:19:05;;;;;;;5.85;2.47;;;12.70;52.20;;;;;;5113120;28;20441;-79
2021/04/27 12:21:43;;;;;;;9.48;2.60;;;12.70;49.60;;;;;;5095608;28;20122;-78
2021/04/27 12:24:11;;;;;;;5.55;2.45;;;12.60;47.30;;;;;;5094959;28;20040;-78
2021/04/27 12:26:49;;;;;;;8.75;3.03;;;12.50;48.70;;;;;;5112871;28;20027;-79
2021/04/27 12:29:24;;;;;;;5.38;2.45;;;12.60;50.50;;;;;;5113359;28;20044;-79
2021/04/27 12:31:51;;;;;;;7.30;2.78;;;12.70;51.10;;;;;;5113003;28;20031;-79
2021/04/27 12:34:19;;;;;;;6.90;2.50;;;12.70;51.10;;;;;;5112822;28;20039;-76
2021/04/27 12:36:47;;;;;;;5.78;2.92;;;12.80;51.70;;;;;;5098050;28;20038;-75
2021/04/27 12:39:27;;;;;;;12.00;3.05;;;13.40;51.00;;;;;;5098168;28;20043;-75
2021/04/27 12:42:02;;;;;;;7.25;2.95;;;12.60;49.30;;;;;;5112813;28;20039;-75
2021/04/27 12:44:38;;;;;;;23.35;3.65;;;12.60;50.60;;;;;;5112741;28;20038;-75
2021/04/27 12:47:21;;;;;;;12.80;2.50;;;12.60;48.40;;;;;;5112372;28;20112;-75
2021/04/27 12:50:02;;;;;;;11.13;2.53;;;12.60;48.50;;;;;;5104755;28;20047;-76
2021/04/27 12:52:32;;;;;;;4.93;2.80;;;12.90;48.70;;;;;;5112431;28;20039;-79
2021/04/27 12:55:06;;;;;;;8.63;2.53;;;13.20;49.30;;;;;;5100056;28;20476;-79
2021/04/27 12:57:32;;;;;;;8.77;2.55;;;12.80;49.70;;;;;;5095281;28;20028;-79
2021/04/27 13:00:07;;;;;;;6.60;2.80;;;12.90;49.70;;;;;;5094539;28;20395;-79
2021/04/27 13:02:33;;;;;;;12.35;3.20;;;13.10;50.30;;;;;;5094608;28;20151;-78
2021/04/27 13:05:04;;;;;;;5.10;3.13;;;13.00;48.20;;;;;;5094564;28;20092;-78
2021/04/27 13:07:36;;;;;;;6.30;3.28;;;12.90;48.00;;;;;;5095499;28;20028;-78
2021/04/27 13:10:23;;;;;;;6.45;3.00;;;12.90;48.40;;;;;;5112740;28;20040;-78
2021/04/27 13:12:53;;;;;;;8.10;3.35;;;12.80;47.10;;;;;;5112224;28;20039;-78